Time;durP1;ratioP1;P1;durP2;ratioP2;P2;SDS_P1;SDS_P2;PMS_P1;PMS_P2;Temp;Humidity;BMP_temperature;BMP_pressure;BME280_temperature;BME280_humidity;BME280_pressure;Samples;Min_cycle;Max_cycle;Signal;HPM_P1;HPM_P2
2023/01/18 00:02:16;;;;;;;;;28.00;21.25;;;;;;;;5010477;28;46220;-77
2023/01/18 00:04:42;;;;;;;;;31.25;25.75;;;;;;;;5010279;28;45291;-77
2023/01/18 00:07:07;;;;;;;;;34.00;24.75;;;;;;;;5012233;28;45284;-77
2023/01/18 00:09:32;;;;;;;;;31.75;25.25;;;;;;;;5012077;28;45444;-77
2023/01/18 00:11:57;;;;;;;;;35.00;26.00;;;;;;;;5012606;28;46769;-77
2023/01/18 00:14:23;;;;;;;;;34.50;28.75;;;;;;;;5015024;28;45331;-77
2023/01/18 00:16:48;;;;;;;;;40.50;32.75;;;;;;;;5012249;28;45331;-77
2023/01/18 00:19:13;;;;;;;;;45.25;35.75;;;;;;;;5023244;28;45374;-77
2023/01/18 00:21:39;;;;;;;;;36.75;30.00;;;;;;;;5010850;28;46163;-76
2023/01/18 00:24:09;;;;;;;;;43.25;35.00;;;;;;;;5013112;28;45288;-77
2023/01/18 00:26:35;;;;;;;;;36.50;32.25;;;;;;;;5015380;28;45422;-78
2023/01/18 00:29:00;;;;;;;;;37.00;31.75;;;;;;;;5014668;28;45308;-78
2023/01/18 00:31:25;;;;;;;;;32.00;28.00;;;;;;;;5013140;28;46225;-78
2023/01/18 00:33:51;;;;;;;;;27.25;25.25;;;;;;;;5021513;28;45674;-77
2023/01/18 00:36:16;;;;;;;;;45.00;37.25;;;;;;;;5016597;28;45351;-77
2023/01/18 00:38:42;;;;;;;;;47.50;35.25;;;;;;;;5016622;28;45295;-77
2023/01/18 00:41:07;;;;;;;;;47.00;39.00;;;;;;;;5012950;28;45341;-77
2023/01/18 00:43:38;;;;;;;;;50.00;42.00;;;;;;;;5009893;28;45327;-78
2023/01/18 00:46:13;;;;;;;;;52.75;43.25;;;;;;;;5015693;28;45257;-79
2023/01/18 00:48:39;;;;;;;;;37.75;34.50;;;;;;;;5009952;28;45232;-78
2023/01/18 00:51:07;;;;;;;;;43.00;34.25;;;;;;;;5015124;28;46468;-78
2023/01/18 00:53:32;;;;;;;;;40.25;26.25;;;;;;;;5018744;28;45746;-77
2023/01/18 00:55:57;;;;;;;;;37.75;28.25;;;;;;;;5010972;28;45332;-77
2023/01/18 00:58:23;;;;;;;;;37.50;33.75;;;;;;;;4999168;28;45863;-78
2023/01/18 01:00:52;;;;;;;;;29.50;25.25;;;;;;;;4998688;28;46534;-78
2023/01/18 01:03:17;;;;;;;;;35.25;28.25;;;;;;;;5007705;28;45291;-78
2023/01/18 01:08:26;;;;;;;;;36.50;31.00;;;;;;;;5008377;28;45472;-77
2023/01/18 01:11:02;;;;;;;;;36.25;28.25;;;;;;;;5013506;28;47038;-78
2023/01/18 01:27:07;;;;;;;;;35.00;31.50;;;;;;;;5014680;28;45480;-77
2023/01/18 01:29:32;;;;;;;;;38.50;33.75;;;;;;;;5015641;28;45308;-77
2023/01/18 01:31:57;;;;;;;;;36.50;27.75;;;;;;;;5007106;28;48358;-77
2023/01/18 01:34:23;;;;;;;;;42.00;32.50;;;;;;;;5011808;28;45309;-75
2023/01/18 01:36:48;;;;;;;;;45.00;33.25;;;;;;;;5012646;28;45445;-77
2023/01/18 01:39:14;;;;;;;;;46.50;35.00;;;;;;;;5012751;28;45675;-76
2023/01/18 01:41:39;;;;;;;;;35.75;26.50;;;;;;;;5005669;28;45425;-77
2023/01/18 01:44:18;;;;;;;;;31.50;28.75;;;;;;;;5001221;28;45372;-77
2023/01/18 01:46:54;;;;;;;;;34.50;31.00;;;;;;;;5012659;28;45392;-77
2023/01/18 01:49:19;;;;;;;;;34.75;26.50;;;;;;;;5013946;28;45439;-77
2023/01/18 01:51:46;;;;;;;;;28.50;22.50;;;;;;;;5008785;28;46017;-77
2023/01/18 01:54:14;;;;;;;;;42.50;29.25;;;;;;;;5001396;28;45473;-77
2023/01/18 01:56:40;;;;;;;;;27.00;23.50;;;;;;;;5009805;28;46399;-77
2023/01/18 01:59:07;;;;;;;;;31.75;29.50;;;;;;;;5000421;28;45492;-76
2023/01/18 02:01:33;;;;;;;;;35.50;26.75;;;;;;;;5008649;28;45489;-76
2023/01/18 02:04:00;;;;;;;;;33.25;27.50;;;;;;;;5001703;28;45217;-76
2023/01/18 02:06:30;;;;;;;;;30.50;25.25;;;;;;;;5004652;28;45327;-76
2023/01/18 02:08:56;;;;;;;;;32.25;26.75;;;;;;;;5005807;28;45312;-76
2023/01/18 02:11:22;;;;;;;;;29.00;24.00;;;;;;;;5011890;28;46431;-75
2023/01/18 02:13:48;;;;;;;;;34.50;28.25;;;;;;;;5005884;28;45261;-75
2023/01/18 02:16:23;;;;;;;;;32.75;26.50;;;;;;;;5015159;28;45384;-76
2023/01/18 02:18:54;;;;;;;;;23.75;19.50;;;;;;;;5013774;28;45187;-76
2023/01/18 02:21:35;;;;;;;;;28.50;26.25;;;;;;;;5007203;28;47341;-76
2023/01/18 02:24:19;;;;;;;;;28.75;24.25;;;;;;;;5007728;28;45204;-76
2023/01/18 02:26:50;;;;;;;;;31.25;27.00;;;;;;;;5015172;28;45443;-76
2023/01/18 02:29:17;;;;;;;;;33.75;31.00;;;;;;;;5013862;28;45538;-75
2023/01/18 02:32:07;;;;;;;;;34.75;29.75;;;;;;;;5008837;28;46305;-76
2023/01/18 02:34:35;;;;;;;;;26.00;23.75;;;;;;;;5006153;28;45383;-75
2023/01/18 02:37:09;;;;;;;;;27.75;20.75;;;;;;;;5005338;28;45487;-75
2023/01/18 02:39:43;;;;;;;;;24.75;18.75;;;;;;;;5008842;28;45644;-75
2023/01/18 02:47:53;;;;;;;;;25.25;23.25;;;;;;;;5008931;28;45289;-75
2023/01/18 02:50:20;;;;;;;;;29.75;25.75;;;;;;;;5014299;28;45721;-76
2023/01/18 02:52:46;;;;;;;;;36.00;32.00;;;;;;;;5007585;28;46441;-75
2023/01/18 02:55:23;;;;;;;;;26.00;23.25;;;;;;;;5016537;28;45584;-76
2023/01/18 02:57:48;;;;;;;;;37.75;32.50;;;;;;;;5009050;28;45592;-77
2023/01/18 03:00:16;;;;;;;;;28.50;27.00;;;;;;;;5020773;28;45751;-76
2023/01/18 03:02:42;;;;;;;;;31.25;28.00;;;;;;;;5012265;28;45711;-76
2023/01/18 03:05:09;;;;;;;;;34.50;30.00;;;;;;;;5018333;28;45151;-75
2023/01/18 03:07:40;;;;;;;;;30.50;29.50;;;;;;;;5009883;28;45261;-76
2023/01/18 03:10:07;;;;;;;;;42.25;34.25;;;;;;;;5001588;28;47115;-75
2023/01/18 03:12:47;;;;;;;;;40.25;29.00;;;;;;;;5007070;28;47296;-76
2023/01/18 03:15:31;;;;;;;;;36.00;30.25;;;;;;;;5015879;28;45473;-76
2023/01/18 03:17:58;;;;;;;;;33.25;29.75;;;;;;;;5016166;28;45295;-76
2023/01/18 03:20:27;;;;;;;;;48.33;40.00;;;;;;;;5010608;28;45464;-77
2023/01/18 03:25:43;;;;;;;;;31.50;29.50;;;;;;;;5017391;28;45285;-76
2023/01/18 03:33:44;;;;;;;;;32.00;30.25;;;;;;;;5016581;28;45911;-76
2023/01/18 03:36:19;;;;;;;;;35.67;31.67;;;;;;;;5016666;28;45213;-77
2023/01/18 03:38:47;;;;;;;;;37.00;33.67;;;;;;;;5010912;28;45423;-76
2023/01/18 03:41:13;;;;;;;;;38.50;32.75;;;;;;;;5011574;28;45721;-76
2023/01/18 03:43:40;;;;;;;;;42.00;34.50;;;;;;;;5010343;28;46758;-76
2023/01/18 03:46:06;;;;;;;;;37.67;32.00;;;;;;;;5016074;28;45445;-76
2023/01/18 03:48:33;;;;;;;;;36.25;35.25;;;;;;;;5002283;28;45171;-74
2023/01/18 03:51:12;;;;;;;;;34.50;31.75;;;;;;;;5012332;28;47316;-76
2023/01/18 03:53:42;;;;;;;;;39.67;33.33;;;;;;;;5001037;28;46228;-74
2023/01/18 03:56:28;;;;;;;;;40.00;32.00;;;;;;;;5015115;28;45244;-76
2023/01/18 03:58:56;;;;;;;;;42.00;36.67;;;;;;;;5011147;28;45461;-76
2023/01/18 04:01:21;;;;;;;;;43.67;33.67;;;;;;;;5012341;28;45369;-76
2023/01/18 04:03:46;;;;;;;;;33.33;32.33;;;;;;;;5004596;28;45525;-76
2023/01/18 04:06:12;;;;;;;;;35.33;32.33;;;;;;;;5015023;28;45439;-76
2023/01/18 04:08:37;;;;;;;;;35.00;32.67;;;;;;;;5005834;28;45273;-76
2023/01/18 04:11:02;;;;;;;;;48.67;35.00;;;;;;;;5014149;28;45321;-75
2023/01/18 04:13:27;;;;;;;;;32.00;27.25;;;;;;;;5009234;28;45316;-76
2023/01/18 04:15:53;;;;;;;;;34.00;28.67;;;;;;;;5017624;28;45286;-75
2023/01/18 04:18:18;;;;;;;;;35.00;30.67;;;;;;;;5013487;28;45347;-75
2023/01/18 04:20:43;;;;;;;;;43.67;35.00;;;;;;;;5008072;28;45435;-76
2023/01/18 04:23:08;;;;;;;;;30.33;27.00;;;;;;;;5012822;28;46704;-75
2023/01/18 04:25:33;;;;;;;;;31.67;29.33;;;;;;;;5017199;28;45228;-75
2023/01/18 04:27:59;;;;;;;;;37.33;30.33;;;;;;;;5010934;28;45248;-76
2023/01/18 04:30:24;;;;;;;;;34.00;27.25;;;;;;;;5016408;28;45819;-76
2023/01/18 04:32:49;;;;;;;;;33.50;29.25;;;;;;;;5005998;28;46937;-77
2023/01/18 04:35:14;;;;;;;;;35.67;29.33;;;;;;;;5024109;28;45314;-76
2023/01/18 04:37:40;;;;;;;;;36.33;31.00;;;;;;;;5013525;28;45366;-76
2023/01/18 04:40:05;;;;;;;;;36.33;31.67;;;;;;;;5019055;28;45517;-76
2023/01/18 04:42:31;;;;;;;;;33.33;29.00;;;;;;;;5003189;28;45948;-76
2023/01/18 04:44:56;;;;;;;;;30.50;25.50;;;;;;;;5011938;28;45454;-76
2023/01/18 04:47:21;;;;;;;;;29.25;25.25;;;;;;;;5006370;28;45299;-76
2023/01/18 04:49:46;;;;;;;;;28.25;24.25;;;;;;;;5011785;28;45245;-75
2023/01/18 04:52:12;;;;;;;;;33.00;25.00;;;;;;;;5005510;28;45360;-76
2023/01/18 04:54:37;;;;;;;;;23.50;23.25;;;;;;;;5016013;28;45488;-76
2023/01/18 04:57:03;;;;;;;;;31.00;27.50;;;;;;;;5008936;28;45316;-76
2023/01/18 04:59:28;;;;;;;;;31.00;30.00;;;;;;;;5006427;28;45321;-76
2023/01/18 05:01:53;;;;;;;;;35.00;27.75;;;;;;;;5007080;28;45461;-77
2023/01/18 05:04:18;;;;;;;;;32.33;30.00;;;;;;;;5016279;28;45219;-76
2023/01/18 05:06:44;;;;;;;;;30.67;28.67;;;;;;;;5011569;28;45189;-76
2023/01/18 05:09:10;;;;;;;;;32.75;30.00;;;;;;;;5009044;28;45697;-76
2023/01/18 05:11:35;;;;;;;;;32.25;31.00;;;;;;;;5010921;28;46213;-76
2023/01/18 05:14:00;;;;;;;;;32.00;27.00;;;;;;;;5011585;28;45232;-76
2023/01/18 05:16:26;;;;;;;;;33.50;29.50;;;;;;;;5013949;28;45163;-77
2023/01/18 05:18:51;;;;;;;;;25.00;21.25;;;;;;;;5019217;28;45394;-76
2023/01/18 05:21:16;;;;;;;;;34.33;28.33;;;;;;;;5016122;28;45297;-76
2023/01/18 05:23:41;;;;;;;;;35.00;33.33;;;;;;;;5011999;28;45367;-77
2023/01/18 05:26:13;;;;;;;;;29.00;25.50;;;;;;;;5014897;28;45624;-79
2023/01/18 05:28:39;;;;;;;;;30.00;22.67;;;;;;;;5002975;28;45954;-77
2023/01/18 05:31:04;;;;;;;;;38.25;29.25;;;;;;;;5005038;28;45357;-77
2023/01/18 05:33:29;;;;;;;;;28.25;21.75;;;;;;;;5002911;28;45435;-78
2023/01/18 05:35:55;;;;;;;;;31.50;26.00;;;;;;;;5001763;28;45426;-78
2023/01/18 05:38:21;;;;;;;;;28.50;24.25;;;;;;;;5000324;28;45518;-81
2023/01/18 05:40:53;;;;;;;;;19.00;18.25;;;;;;;;5001105;28;45432;-80
2023/01/18 05:43:23;;;;;;;;;32.75;25.00;;;;;;;;5004522;28;45257;-80
2023/01/18 05:45:48;;;;;;;;;27.75;24.25;;;;;;;;4999022;28;45342;-80
2023/01/18 05:48:14;;;;;;;;;29.33;24.33;;;;;;;;5000357;28;45405;-78
2023/01/18 05:50:43;;;;;;;;;29.00;24.75;;;;;;;;5001210;28;45264;-77
2023/01/18 05:53:09;;;;;;;;;34.33;30.33;;;;;;;;5002274;28;45462;-79
2023/01/18 05:55:34;;;;;;;;;33.67;27.00;;;;;;;;5000613;28;45399;-80
2023/01/18 05:57:59;;;;;;;;;36.33;30.00;;;;;;;;4998901;28;45529;-83
2023/01/18 06:00:25;;;;;;;;;34.00;31.33;;;;;;;;4998945;28;45348;-79
2023/01/18 06:02:51;;;;;;;;;34.33;30.00;;;;;;;;5000446;28;45456;-81
2023/01/18 06:05:16;;;;;;;;;32.33;31.00;;;;;;;;5000683;28;45394;-80
2023/01/18 06:07:42;;;;;;;;;31.67;25.67;;;;;;;;5001443;28;46832;-80
2023/01/18 06:10:07;;;;;;;;;33.33;29.00;;;;;;;;5000157;28;45408;-80
2023/01/18 06:12:33;;;;;;;;;33.25;27.50;;;;;;;;5003543;28;45496;-83
2023/01/18 06:14:58;;;;;;;;;35.67;29.00;;;;;;;;5004535;28;45401;-81
2023/01/18 06:17:24;;;;;;;;;32.33;28.33;;;;;;;;5004667;28;45360;-81
2023/01/18 06:19:49;;;;;;;;;31.67;27.00;;;;;;;;5005075;28;46249;-80
2023/01/18 06:22:14;;;;;;;;;36.00;27.33;;;;;;;;5006429;28;45572;-81
2023/01/18 06:24:40;;;;;;;;;30.00;26.00;;;;;;;;5002168;28;45213;-82
2023/01/18 06:27:06;;;;;;;;;38.67;30.00;;;;;;;;5006257;28;45571;-81
2023/01/18 06:29:31;;;;;;;;;38.00;28.67;;;;;;;;5005949;28;46101;-79
2023/01/18 06:31:56;;;;;;;;;40.67;34.33;;;;;;;;5005079;28;45406;-84
2023/01/18 06:34:21;;;;;;;;;34.67;30.33;;;;;;;;5004056;28;45609;-82
2023/01/18 06:36:47;;;;;;;;;38.67;35.00;;;;;;;;5006829;28;46643;-83
2023/01/18 06:39:12;;;;;;;;;36.33;29.00;;;;;;;;5007416;28;45505;-84
2023/01/18 06:41:38;;;;;;;;;31.67;27.33;;;;;;;;5007057;28;45301;-81
2023/01/18 06:44:03;;;;;;;;;32.33;28.67;;;;;;;;5009539;28;45182;-81
2023/01/18 06:46:28;;;;;;;;;39.00;31.33;;;;;;;;5006740;28;45422;-81
2023/01/18 06:48:53;;;;;;;;;33.33;25.00;;;;;;;;5011254;28;46094;-82
2023/01/18 06:51:20;;;;;;;;;30.00;25.00;;;;;;;;5012907;28;45163;-83
2023/01/18 06:53:46;;;;;;;;;29.00;23.00;;;;;;;;5001978;28;45198;-82
2023/01/18 06:56:11;;;;;;;;;32.00;27.33;;;;;;;;5004968;28;45186;-82
2023/01/18 06:58:37;;;;;;;;;32.33;28.33;;;;;;;;5007701;28;45403;-82
2023/01/18 07:01:03;;;;;;;;;34.00;32.00;;;;;;;;5011726;28;45740;-81
2023/01/18 07:03:28;;;;;;;;;42.00;33.33;;;;;;;;5013823;28;45380;-80
2023/01/18 07:05:54;;;;;;;;;37.67;35.00;;;;;;;;5012490;28;45377;-80
2023/01/18 07:08:20;;;;;;;;;40.67;38.00;;;;;;;;5003052;28;45554;-81
2023/01/18 07:10:46;;;;;;;;;32.00;24.67;;;;;;;;5006281;28;45486;-78
2023/01/18 07:13:11;;;;;;;;;37.33;29.33;;;;;;;;5003927;28;45209;-79
2023/01/18 07:15:36;;;;;;;;;43.33;35.00;;;;;;;;5009799;28;45397;-84
2023/01/18 07:18:01;;;;;;;;;43.33;37.67;;;;;;;;5006360;28;45261;-81
2023/01/18 07:20:28;;;;;;;;;42.00;31.67;;;;;;;;5011758;28;45385;-80
2023/01/18 07:22:53;;;;;;;;;41.00;35.67;;;;;;;;5004452;28;45438;-79
2023/01/18 07:25:19;;;;;;;;;34.00;28.00;;;;;;;;5013435;28;45896;-78
2023/01/18 07:27:45;;;;;;;;;38.67;35.67;;;;;;;;5007068;28;45405;-80
2023/01/18 07:30:13;;;;;;;;;42.33;36.67;;;;;;;;5012279;28;45418;-77
2023/01/18 07:32:38;;;;;;;;;49.67;42.33;;;;;;;;5001097;28;45469;-78
2023/01/18 07:35:04;;;;;;;;;37.00;29.33;;;;;;;;5005836;28;45418;-81
2023/01/18 07:37:29;;;;;;;;;45.00;39.33;;;;;;;;5006076;28;45304;-81
2023/01/18 07:39:54;;;;;;;;;38.67;37.67;;;;;;;;5005307;28;45315;-80
2023/01/18 07:42:20;;;;;;;;;43.00;41.33;;;;;;;;5004897;28;45478;-78
2023/01/18 07:44:45;;;;;;;;;53.33;40.00;;;;;;;;5005012;28;45442;-77
2023/01/18 07:47:10;;;;;;;;;44.67;34.00;;;;;;;;5003402;28;46030;-77
2023/01/18 07:49:35;;;;;;;;;63.67;45.33;;;;;;;;5002425;28;45301;-77
2023/01/18 07:52:00;;;;;;;;;50.33;40.67;;;;;;;;5004792;28;45439;-78
2023/01/18 07:54:26;;;;;;;;;59.33;46.67;;;;;;;;5003238;28;45225;-79
2023/01/18 07:56:52;;;;;;;;;61.67;48.67;;;;;;;;5004817;28;46288;-79
2023/01/18 07:59:17;;;;;;;;;60.00;47.00;;;;;;;;4999994;28;45364;-78
2023/01/18 08:01:42;;;;;;;;;62.33;48.00;;;;;;;;5000448;28;45519;-80
2023/01/18 08:04:08;;;;;;;;;46.33;38.67;;;;;;;;5002965;28;45402;-75
2023/01/18 08:06:33;;;;;;;;;58.00;48.67;;;;;;;;5001274;28;46126;-78
2023/01/18 08:08:58;;;;;;;;;54.33;47.33;;;;;;;;5001077;28;45498;-75
2023/01/18 08:11:24;;;;;;;;;52.00;45.00;;;;;;;;5002329;28;45257;-80
2023/01/18 08:13:51;;;;;;;;;50.67;42.00;;;;;;;;5010105;28;46949;-76
2023/01/18 08:16:17;;;;;;;;;53.00;43.00;;;;;;;;5002324;28;45345;-76
2023/01/18 08:18:44;;;;;;;;;54.00;44.33;;;;;;;;5004801;28;45534;-75
2023/01/18 08:21:10;;;;;;;;;61.00;46.00;;;;;;;;5006937;28;45359;-75
2023/01/18 08:23:36;;;;;;;;;60.67;43.00;;;;;;;;5006249;28;46013;-76
2023/01/18 08:26:02;;;;;;;;;65.67;48.67;;;;;;;;5000150;28;45352;-76
2023/01/18 08:28:27;;;;;;;;;63.33;49.33;;;;;;;;5004009;28;45154;-76
2023/01/18 08:30:52;;;;;;;;;88.33;62.33;;;;;;;;5004328;28;45357;-76
2023/01/18 08:33:17;;;;;;;;;80.33;64.67;;;;;;;;5006106;28;45628;-76
2023/01/18 08:35:44;;;;;;;;;74.33;57.33;;;;;;;;5010157;28;45321;-77
2023/01/18 08:38:10;;;;;;;;;53.33;46.00;;;;;;;;5008983;28;45360;-76
2023/01/18 08:40:35;;;;;;;;;51.00;42.67;;;;;;;;5010455;28;45221;-77
2023/01/18 08:43:01;;;;;;;;;45.67;29.00;;;;;;;;5008432;28;45185;-77
2023/01/18 08:45:26;;;;;;;;;54.00;39.00;;;;;;;;5009539;28;46600;-78
2023/01/18 08:47:59;;;;;;;;;50.33;42.00;;;;;;;;5006225;28;45492;-76
2023/01/18 08:50:25;;;;;;;;;39.33;37.00;;;;;;;;5005115;28;45211;-76
2023/01/18 08:52:51;;;;;;;;;41.00;39.00;;;;;;;;5004865;28;44883;-75
2023/01/18 08:55:17;;;;;;;;;48.67;37.33;;;;;;;;5002121;28;45294;-75
2023/01/18 08:57:42;;;;;;;;;46.00;37.00;;;;;;;;5003967;28;45386;-76
2023/01/18 09:00:08;;;;;;;;;45.33;40.00;;;;;;;;5003291;28;45267;-75
2023/01/18 09:02:33;;;;;;;;;42.33;38.67;;;;;;;;5004936;28;45562;-76
2023/01/18 09:04:59;;;;;;;;;52.00;39.33;;;;;;;;5001933;28;47297;-75
2023/01/18 09:07:24;;;;;;;;;56.67;42.00;;;;;;;;5001549;28;45308;-76
2023/01/18 09:09:49;;;;;;;;;44.33;41.33;;;;;;;;5001407;28;45528;-74
2023/01/18 09:12:14;;;;;;;;;41.00;35.33;;;;;;;;5004406;28;45581;-75
2023/01/18 09:14:39;;;;;;;;;45.33;34.33;;;;;;;;5005606;28;46208;-76
2023/01/18 09:17:05;;;;;;;;;45.33;34.33;;;;;;;;5006635;28;45371;-75
2023/01/18 09:19:30;;;;;;;;;42.33;36.00;;;;;;;;5001752;28;46418;-76
2023/01/18 09:21:55;;;;;;;;;40.67;34.00;;;;;;;;5000788;28;45358;-76
2023/01/18 09:24:20;;;;;;;;;39.00;36.00;;;;;;;;5003582;28;45476;-76
2023/01/18 09:26:49;;;;;;;;;42.00;36.00;;;;;;;;5005619;28;45445;-76
2023/01/18 09:29:15;;;;;;;;;49.33;32.00;;;;;;;;5009345;28;45345;-77
2023/01/18 09:31:40;;;;;;;;;41.67;32.67;;;;;;;;5010730;28;45214;-75
2023/01/18 09:34:05;;;;;;;;;47.33;33.00;;;;;;;;5015228;28;45578;-76
2023/01/18 09:36:31;;;;;;;;;43.67;34.33;;;;;;;;5010939;28;44880;-76
2023/01/18 09:38:56;;;;;;;;;39.67;35.00;;;;;;;;5015801;28;45319;-76
2023/01/18 09:41:21;;;;;;;;;43.67;36.33;;;;;;;;5016148;28;45351;-76
2023/01/18 09:43:53;;;;;;;;;33.50;29.75;;;;;;;;5011377;28;47801;-76
2023/01/18 09:46:19;;;;;;;;;30.67;29.00;;;;;;;;5010839;28;45506;-77
2023/01/18 09:48:48;;;;;;;;;27.50;25.75;;;;;;;;5006789;28;45318;-78
2023/01/18 09:51:22;;;;;;;;;41.50;32.00;;;;;;;;5012337;28;45469;-77
2023/01/18 09:53:47;;;;;;;;;32.00;27.25;;;;;;;;5010579;28;46972;-77
2023/01/18 09:56:36;;;;;;;;;27.50;23.50;;;;;;;;5014033;28;45304;-77
2023/01/18 09:59:04;;;;;;;;;34.25;27.25;;;;;;;;5013030;28;45372;-80
2023/01/18 10:01:34;;;;;;;;;30.75;27.25;;;;;;;;5011701;28;46251;-77
2023/01/18 10:04:02;;;;;;;;;33.00;27.00;;;;;;;;5011217;28;46919;-78
2023/01/18 10:06:28;;;;;;;;;31.75;30.50;;;;;;;;5004119;28;45190;-76
2023/01/18 10:09:03;;;;;;;;;34.75;23.00;;;;;;;;5007655;28;45340;-78
2023/01/18 10:11:42;;;;;;;;;30.75;27.00;;;;;;;;5011390;28;45584;-78
2023/01/18 10:14:14;;;;;;;;;22.50;20.50;;;;;;;;5007282;28;45551;-79
2023/01/18 10:16:39;;;;;;;;;24.00;22.75;;;;;;;;5010814;28;45172;-79
2023/01/18 10:19:12;;;;;;;;;23.75;20.50;;;;;;;;5015855;28;45223;-79
2023/01/18 10:21:37;;;;;;;;;23.25;21.75;;;;;;;;5008803;28;45304;-79
2023/01/18 10:24:18;;;;;;;;;24.50;21.75;;;;;;;;5024444;28;45320;-78
2023/01/18 10:26:45;;;;;;;;;18.75;13.75;;;;;;;;5014025;28;45397;-79
2023/01/18 10:29:25;;;;;;;;;21.00;17.00;;;;;;;;5011016;28;45493;-80
2023/01/18 10:31:59;;;;;;;;;22.00;16.25;;;;;;;;5021555;28;45506;-78
2023/01/18 10:34:31;;;;;;;;;23.25;18.00;;;;;;;;5015516;28;47162;-79
2023/01/18 10:37:01;;;;;;;;;13.25;9.75;;;;;;;;5009657;28;45477;-78
2023/01/18 10:39:41;;;;;;;;;15.50;14.00;;;;;;;;5013541;28;45365;-78
2023/01/18 10:42:26;;;;;;;;;23.00;14.25;;;;;;;;5005879;28;45397;-78
2023/01/18 10:44:51;;;;;;;;;17.00;12.75;;;;;;;;5016233;28;45335;-77
2023/01/18 10:47:17;;;;;;;;;12.75;11.25;;;;;;;;5000577;28;45451;-77
2023/01/18 10:49:44;;;;;;;;;23.00;16.25;;;;;;;;5002558;28;45443;-78
2023/01/18 10:52:15;;;;;;;;;13.50;11.25;;;;;;;;5000411;28;45424;-77
2023/01/18 10:54:47;;;;;;;;;13.75;11.25;;;;;;;;5003837;28;46109;-78
2023/01/18 10:57:18;;;;;;;;;9.25;9.00;;;;;;;;5003471;28;45511;-77
2023/01/18 10:59:43;;;;;;;;;15.00;10.00;;;;;;;;5011205;28;45165;-80
2023/01/18 11:02:18;;;;;;;;;8.25;8.25;;;;;;;;5024134;28;45858;-80
2023/01/18 11:04:44;;;;;;;;;11.50;9.50;;;;;;;;5004670;28;46526;-79
2023/01/18 11:07:09;;;;;;;;;7.00;6.00;;;;;;;;5013030;28;45158;-80
2023/01/18 11:09:54;;;;;;;;;11.75;9.75;;;;;;;;5020794;28;45414;-80
2023/01/18 11:12:37;;;;;;;;;11.25;7.00;;;;;;;;5006993;28;45459;-81
2023/01/18 11:15:14;;;;;;;;;10.00;8.00;;;;;;;;5016783;28;45677;-77
2023/01/18 11:17:40;;;;;;;;;9.00;9.00;;;;;;;;5014444;28;45290;-77
2023/01/18 11:20:10;;;;;;;;;10.75;8.25;;;;;;;;5018583;28;45402;-79
2023/01/18 11:22:36;;;;;;;;;11.75;11.75;;;;;;;;5016530;28;45458;-78
2023/01/18 11:25:02;;;;;;;;;9.75;7.00;;;;;;;;5014679;28;45427;-79
2023/01/18 11:27:30;;;;;;;;;16.50;11.50;;;;;;;;5003889;28;45366;-80
2023/01/18 11:29:55;;;;;;;;;8.00;6.75;;;;;;;;5010687;28;45391;-80
2023/01/18 11:32:24;;;;;;;;;10.25;6.25;;;;;;;;5003032;28;45968;-79
2023/01/18 11:34:53;;;;;;;;;12.00;9.75;;;;;;;;5020436;28;46350;-81
2023/01/18 11:37:33;;;;;;;;;8.00;6.00;;;;;;;;5017165;28;45432;-76
2023/01/18 11:39:59;;;;;;;;;12.75;10.25;;;;;;;;5005612;28;45508;-79
2023/01/18 11:42:33;;;;;;;;;7.25;7.25;;;;;;;;5014106;28;45325;-78
2023/01/18 11:45:16;;;;;;;;;7.75;7.00;;;;;;;;5005793;28;45939;-78
2023/01/18 11:47:50;;;;;;;;;6.75;6.75;;;;;;;;5013878;28;45387;-78
2023/01/18 11:50:45;;;;;;;;;11.25;6.00;;;;;;;;5012237;28;45310;-79
2023/01/18 11:53:13;;;;;;;;;10.25;7.00;;;;;;;;5007158;28;46470;-78
2023/01/18 11:55:46;;;;;;;;;7.50;7.00;;;;;;;;5014969;28;46113;-78
2023/01/18 11:58:28;;;;;;;;;11.50;7.00;;;;;;;;5018746;28;45411;-79
2023/01/18 12:01:07;;;;;;;;;9.00;6.75;;;;;;;;5023049;28;45208;-78
2023/01/18 12:03:43;;;;;;;;;7.00;5.25;;;;;;;;5015500;28;45320;-78
2023/01/18 12:06:32;;;;;;;;;8.50;6.75;;;;;;;;5021352;28;46685;-78
2023/01/18 12:09:02;;;;;;;;;15.75;13.25;;;;;;;;5007777;28;45249;-78
2023/01/18 12:11:42;;;;;;;;;7.25;5.50;;;;;;;;5021571;28;45406;-78
2023/01/18 12:14:11;;;;;;;;;15.75;14.00;;;;;;;;5014763;28;45897;-78
2023/01/18 12:16:55;;;;;;;;;6.75;6.75;;;;;;;;5018052;28;47096;-78
2023/01/18 12:19:59;;;;;;;;;6.00;6.00;;;;;;;;5022199;28;45208;-77
2023/01/18 12:22:33;;;;;;;;;5.25;4.00;;;;;;;;4993333;28;45311;-79
2023/01/18 12:25:04;;;;;;;;;11.75;6.75;;;;;;;;4983000;28;45787;-79
2023/01/18 12:27:35;;;;;;;;;11.00;10.00;;;;;;;;5004040;28;45388;-78
2023/01/18 12:30:05;;;;;;;;;12.75;11.00;;;;;;;;5020411;28;45221;-78
2023/01/18 12:32:49;;;;;;;;;7.00;7.00;;;;;;;;5010581;28;45446;-78
2023/01/18 12:35:27;;;;;;;;;11.50;6.50;;;;;;;;5007808;28;45346;-78
2023/01/18 12:37:55;;;;;;;;;29.50;20.75;;;;;;;;5008606;28;45479;-78
2023/01/18 12:40:39;;;;;;;;;7.50;6.50;;;;;;;;5009295;28;45419;-78
2023/01/18 12:43:19;;;;;;;;;7.00;6.00;;;;;;;;5010363;28;45241;-78
2023/01/18 12:46:06;;;;;;;;;6.00;6.00;;;;;;;;5012773;28;45341;-77
2023/01/18 12:48:41;;;;;;;;;10.50;6.00;;;;;;;;5017389;28;45363;-77
2023/01/18 12:51:15;;;;;;;;;9.50;8.00;;;;;;;;5018272;28;45335;-78
2023/01/18 12:53:44;;;;;;;;;7.25;6.00;;;;;;;;5008021;28;44730;-77
2023/01/18 12:56:22;;;;;;;;;10.25;10.25;;;;;;;;5015046;28;45558;-78
2023/01/18 12:58:50;;;;;;;;;4.50;4.50;;;;;;;;5013823;28;45487;-77
2023/01/18 13:01:20;;;;;;;;;5.75;3.25;;;;;;;;5011151;28;45311;-77
2023/01/18 13:03:46;;;;;;;;;7.00;7.00;;;;;;;;5014529;28;45541;-77
2023/01/18 13:06:11;;;;;;;;;6.50;6.00;;;;;;;;5010161;28;45546;-77
2023/01/18 13:08:43;;;;;;;;;6.00;6.00;;;;;;;;5014748;28;46447;-77
2023/01/18 13:11:26;;;;;;;;;5.25;5.00;;;;;;;;5006210;28;45378;-77
2023/01/18 13:14:00;;;;;;;;;6.75;4.25;;;;;;;;5014710;28;45266;-77
2023/01/18 13:16:30;;;;;;;;;10.25;7.50;;;;;;;;4999639;28;45346;-78
2023/01/18 13:19:02;;;;;;;;;6.00;6.00;;;;;;;;5011648;28;45301;-77
2023/01/18 13:21:27;;;;;;;;;6.75;6.75;;;;;;;;5008116;28;45257;-77
2023/01/18 13:24:20;;;;;;;;;6.75;6.50;;;;;;;;5014357;28;45423;-78
2023/01/18 13:26:46;;;;;;;;;9.00;7.00;;;;;;;;5018041;28;45299;-78
2023/01/18 13:29:11;;;;;;;;;3.50;3.50;;;;;;;;5013539;28;45258;-77
2023/01/18 13:31:36;;;;;;;;;7.50;7.50;;;;;;;;5009732;28;45286;-77
2023/01/18 13:34:02;;;;;;;;;10.00;10.00;;;;;;;;5013817;28;45321;-77
2023/01/18 13:36:28;;;;;;;;;8.00;6.00;;;;;;;;5008160;28;45403;-78
2023/01/18 13:38:56;;;;;;;;;8.50;4.00;;;;;;;;5015025;28;45418;-77
2023/01/18 13:41:23;;;;;;;;;9.00;8.00;;;;;;;;5009055;28;45759;-77
2023/01/18 13:43:48;;;;;;;;;5.50;3.50;;;;;;;;5015650;28;45338;-77
2023/01/18 13:46:18;;;;;;;;;4.50;3.00;;;;;;;;5010678;28;45376;-77
2023/01/18 13:48:53;;;;;;;;;1.25;1.25;;;;;;;;5015474;28;46288;-77
2023/01/18 13:51:38;;;;;;;;;4.25;3.00;;;;;;;;5012897;28;45350;-78
2023/01/18 13:54:03;;;;;;;;;6.75;6.75;;;;;;;;5007833;28;45312;-77
2023/01/18 13:56:29;;;;;;;;;5.00;3.00;;;;;;;;5010085;28;45217;-78
2023/01/18 13:58:57;;;;;;;;;3.25;3.25;;;;;;;;5009025;28;45509;-77
2023/01/18 14:01:23;;;;;;;;;2.00;1.00;;;;;;;;5008194;28;45320;-78
2023/01/18 14:03:50;;;;;;;;;5.00;3.00;;;;;;;;5013269;28;45346;-77
2023/01/18 14:06:25;;;;;;;;;3.25;3.25;;;;;;;;5009412;28;45645;-78
2023/01/18 14:08:54;;;;;;;;;4.25;4.25;;;;;;;;5014878;28;46420;-77
2023/01/18 14:11:26;;;;;;;;;6.25;5.50;;;;;;;;5008478;28;44761;-77
2023/01/18 14:13:51;;;;;;;;;6.00;4.25;;;;;;;;5014605;28;45395;-77
2023/01/18 14:16:18;;;;;;;;;3.25;2.75;;;;;;;;4999633;28;45550;-77
2023/01/18 14:18:56;;;;;;;;;2.75;2.75;;;;;;;;5011270;28;45245;-77
2023/01/18 14:21:24;;;;;;;;;3.00;2.00;;;;;;;;5001922;28;45314;-77
2023/01/18 14:23:50;;;;;;;;;2.75;2.00;;;;;;;;5015333;28;45421;-77
2023/01/18 14:26:17;;;;;;;;;3.50;2.25;;;;;;;;5006101;28;45460;-77
2023/01/18 14:28:42;;;;;;;;;2.00;2.00;;;;;;;;5014164;28;45375;-77
2023/01/18 14:31:13;;;;;;;;;2.50;2.50;;;;;;;;5008160;28;45442;-77
2023/01/18 14:33:40;;;;;;;;;4.25;2.00;;;;;;;;5003739;28;45533;-76
2023/01/18 14:36:07;;;;;;;;;4.00;3.00;;;;;;;;5007301;28;45315;-77
2023/01/18 14:38:32;;;;;;;;;3.00;3.00;;;;;;;;5017051;28;47525;-76
2023/01/18 14:41:01;;;;;;;;;4.25;4.25;;;;;;;;5011288;28;45326;-78
2023/01/18 14:43:40;;;;;;;;;5.50;5.50;;;;;;;;5006267;28;45238;-77
2023/01/18 14:46:16;;;;;;;;;3.00;3.00;;;;;;;;5012120;28;45341;-77
2023/01/18 14:48:52;;;;;;;;;11.00;4.25;;;;;;;;5020093;28;45483;-77
2023/01/18 14:51:21;;;;;;;;;3.00;3.00;;;;;;;;5009649;28;45450;-77
2023/01/18 14:53:49;;;;;;;;;4.00;4.00;;;;;;;;5019664;28;45572;-77
2023/01/18 14:56:22;;;;;;;;;3.00;3.00;;;;;;;;5009861;28;46685;-76
2023/01/18 14:59:01;;;;;;;;;2.00;2.00;;;;;;;;5018506;28;45319;-77
2023/01/18 15:01:29;;;;;;;;;3.50;2.50;;;;;;;;5010631;28;45275;-76
2023/01/18 15:03:58;;;;;;;;;5.00;3.75;;;;;;;;5003021;28;45236;-77